Latest Weather Observations for Trepell

IDQ60801

Issued at 11:32 am EST Saturday 20 December 2014 (issued every 30 minutes, with the page automatically refreshed every 10 minutes)

About weather observations | Map of weather stations | Latest weather observations for QLD | Other Formats
Station Details ID: 037036 Name: TREPELL AIRPORT Lat: -21.84 Lon: 140.89 Height: 266.2 m
Data from the previous 72 hours. | See also: Recent months at Trepell
Date/Time
EST
Temp
°C
App
Temp
°C
Dew
Point
Rel
Hum
%
Delta-T
°C
Wind Press
QNH
hPa
Press
MSL
hPa
Rain
since 9 am
mm
Dir
 
Spd
km/h
Gust
km/h
Spd
kts
Gust
kts
20/11:30am 36.4 33.4 9.1 19 15.8 E 15 28 8 15 1012.2 1010.1 0.0
20/11:00am 35.6 32.2 7.6 18 15.8 E 15 22 8 12 1012.5 1010.4 0.0
20/10:30am 35.3 31.9 10.4 22 14.7 ENE 19 28 10 15 1012.8 1010.7 0.0
20/10:00am 34.4 30.7 11.5 25 13.7 ENE 22 30 12 16 1012.9 1010.8 0.0
20/09:30am 34.2 30.1 11.4 25 13.6 ENE 24 30 13 16 1013.2 1011.1 0.0
20/09:00am 33.3 29.7 12.9 29 12.4 E 24 30 13 16 1013.1 1011.0 0.0
20/08:30am 32.5 29.3 13.2 31 11.7 E 22 28 12 15 1013.1 1011.0 0.0
20/08:00am 30.8 26.3 10.2 28 11.9 E 24 30 13 16 1013.0 1010.9 0.0
20/07:30am 28.9 26.2 9.1 29 11.1 E 13 19 7 10 1012.8 1010.7 0.0
20/07:00am 26.5 24.6 8.9 33 9.7 ESE 9 13 5 7 1012.4 1010.3 0.0
20/06:30am 25.2 23.8 9.5 37 8.7 SE 7 11 4 6 1012.1 1010.0 0.0
20/06:00am 24.4 21.8 9.2 38 8.3 SE 13 15 7 8 1011.6 1009.6 0.0
20/05:30am 24.1 22.4 9.7 40 8.0 SSE 9 13 5 7 1011.2 1009.2 0.0
20/05:00am 24.9 22.2 8.8 36 8.8 SE 13 17 7 9 1010.9 1008.8 0.0
20/04:30am 25.2 22.3 9.5 37 8.7 SE 15 17 8 9 1010.8 1008.7 0.0
20/04:00am 24.6 23.1 10.5 41 7.9 SE 9 15 5 8 1010.8 1008.7 0.0
20/03:30am 24.0 24.5 11.7 46 7.0 CALM 0 6 0 3 1010.9 1008.8 0.0
20/03:00am 23.8 24.6 12.4 48 6.6 CALM 0 0 0 0 1011.1 1009.1 0.0
20/02:30am 23.9 23.8 12.2 48 6.7 S 4 7 2 4 1011.2 1009.2 0.0
20/02:00am 24.4 23.2 11.7 45 7.3 SW 9 9 5 5 1011.0 1008.9 0.0
20/01:30am 25.1 23.5 10.2 39 8.3 S 9 11 5 6 1011.1 1009.1 0.0
20/01:00am 25.2 23.9 11.4 42 7.9 SSW 9 11 5 6 1011.4 1009.4 0.0
20/12:30am 25.8 24.3 10.4 38 8.7 S 9 11 5 6 1011.8 1009.8 0.0
20/12:00am 26.5 25.4 10.6 37 9.0 SSW 7 9 4 5 1012.4 1010.3 0.0
 
Date/Time
EST
Temp
°C
App
Temp
°C
Dew
Point
Rel
Hum
%
Delta-T
°C
Wind Press
QNH
hPa
Press
MSL
hPa
Rain
since 9 am
mm
Dir
 
Spd
km/h
Gust
km/h
Spd
kts
Gust
kts
19/11:30pm 26.7 25.3 10.8 37 9.1 S 9 11 5 6 1012.6 1010.5 0.0
19/11:00pm 28.4 26.3 9.6 31 10.6 S 11 13 6 7 1012.7 1010.6 0.0
19/10:30pm 28.9 26.4 9.6 30 10.9 SSE 13 15 7 8 1012.5 1010.4 0.0
19/10:00pm 30.4 27.2 9.8 28 11.8 SSE 17 19 9 10 1012.2 1010.1 0.0
19/09:30pm 30.3 28.2 9.8 28 11.7 S 11 15 6 8 1012.0 1009.9 0.0
19/09:00pm 31.0 28.9 9.8 27 12.1 S 11 13 6 7 1011.7 1009.7 0.0
19/08:30pm 31.7 28.8 9.8 26 12.6 SSE 15 17 8 9 1011.5 1009.5 0.0
19/08:00pm 32.5 29.9 9.3 24 13.3 S 13 17 7 9 1011.2 1009.2 0.0
19/07:30pm 33.0 30.1 9.7 24 13.4 SSE 15 20 8 11 1010.8 1008.7 0.0
19/07:00pm 33.9 29.0 9.9 23 14.0 SE 26 33 14 18 1010.6 1008.5 0.0
19/06:30pm 34.7 30.0 9.2 21 14.7 SSE 24 37 13 20 1010.4 1008.3 0.0
19/06:00pm 35.3 32.0 11.0 23 14.5 SSE 19 28 10 15 1010.3 1008.2 0.0
19/05:30pm 35.6 33.0 11.9 24 14.3 SSE 17 24 9 13 1010.2 1008.1 0.0
19/05:00pm 35.4 32.9 12.4 25 14.0 SSE 17 28 9 15 1010.1 1008.0 0.0
19/04:30pm 34.8 32.1 13.0 26 13.3 SE 19 26 10 14 1010.2 1008.1 0.0
19/04:00pm 35.7 33.7 13.8 27 13.6 SSE 17 28 9 15 1010.4 1008.3 0.0
19/03:30pm 34.8 32.9 13.0 26 13.3 S 15 26 8 14 1010.8 1008.7 0.0
19/03:00pm 34.8 32.1 13.0 26 13.3 SSE 19 28 10 15 1011.1 1009.1 0.0
19/02:30pm 35.0 32.8 14.8 29 12.7 SSE 20 35 11 19 1011.4 1009.4 0.0
19/02:00pm 34.0 31.6 14.5 31 12.1 SE 20 35 11 19 1012.0 1009.9 0.0
19/01:30pm 32.8 31.2 13.9 31 11.6 SSE 15 26 8 14 1012.4 1010.3 0.0
19/01:00pm 33.5 32.8 16.4 36 10.9 S 15 24 8 13 1013.0 1010.9 0.0
19/12:30pm 32.1 31.3 16.0 38 10.2 SSE 15 26 8 14 1013.4 1011.3 0.0
19/12:00pm 31.2 29.9 14.8 37 10.1 SSE 15 24 8 13 1013.8 1011.7 0.0
19/11:30am 30.9 29.7 16.1 41 9.3 S 17 32 9 17 1014.1 1012.0 0.0
19/11:00am 30.4 30.0 17.1 44 8.5 SSE 15 22 8 12 1014.3 1012.2 0.0
19/10:30am 28.9 29.6 18.9 54 6.5 S 13 19 7 10 1014.4 1012.3 0.0
19/10:00am 27.9 27.6 18.3 56 6.2 S 17 24 9 13 1014.5 1012.5 0.0
19/09:30am 26.8 26.9 18.4 60 5.4 S 15 20 8 11 1014.8 1012.8 0.0
19/09:00am 25.8 26.4 18.5 64 4.7 SSW 13 17 7 9 1014.9 1012.9 18.0
19/08:30am 24.8 25.8 19.4 72 3.5 SSW 13 19 7 10 1014.9 1012.9 18.0
19/08:00am 23.9 25.1 19.0 74 3.1 SSW 11 15 6 8 1014.9 1012.9 18.0
19/07:30am 23.2 24.8 19.1 78 2.6 SSE 9 13 5 7 1014.8 1012.8 18.0
19/07:00am 22.4 23.9 19.0 81 2.2 S 9 13 5 7 1014.3 1012.2 18.0
19/06:30am 21.5 22.8 19.2 87 1.5 S 11 13 6 7 1013.8 1011.7 18.0
19/06:00am 20.8 22.4 19.1 90 1.1 SSW 9 11 5 6 1013.2 1011.1 18.0
19/05:30am 20.9 22.9 19.2 90 1.1 SSW 7 9 4 5 1012.9 1010.8 18.0
19/05:00am 21.0 23.1 19.3 90 1.1 SSW 7 9 4 5 1012.4 1010.3 18.0
19/04:30am 21.2 22.9 19.3 89 1.2 SSW 9 13 5 7 1012.4 1010.3 18.0
19/04:00am 21.5 23.3 19.6 89 1.2 S 9 11 5 6 1012.3 1010.2 18.0
19/03:30am 21.6 23.5 19.7 89 1.2 S 9 11 5 6 1012.1 1010.0 18.0
19/03:00am 21.5 23.3 19.6 89 1.2 S 9 9 5 5 1011.8 1009.8 18.0
19/02:30am 21.7 24.0 19.8 89 1.2 S 7 9 4 5 1012.0 1009.9 18.0
19/02:00am 22.1 25.6 19.6 86 1.6 CALM 0 0 0 0 1012.0 1009.9 18.0
19/01:30am 22.0 25.5 19.5 86 1.6 CALM 0 0 0 0 1012.4 1010.3 18.0
19/01:00am 22.5 25.2 19.5 83 1.9 NE 4 6 2 3 1012.8 1010.7 18.0
19/12:30am 22.9 25.2 19.5 81 2.2 NE 6 7 3 4 1013.1 1011.0 18.0
19/12:00am 23.1 25.1 19.9 82 2.1 NE 9 13 5 7 1013.4 1011.3 18.0
 
Date/Time
EST
Temp
°C
App
Temp
°C
Dew
Point
Rel
Hum
%
Delta-T
°C
Wind Press
QNH
hPa
Press
MSL
hPa
Rain
since 9 am
mm
Dir
 
Spd
km/h
Gust
km/h
Spd
kts
Gust
kts
18/11:30pm 23.1 25.2 20.1 83 2.0 N 9 13 5 7 1013.9 1011.8 18.0
18/11:00pm 23.1 25.3 19.7 81 2.2 NE 7 9 4 5 1014.0 1011.9 18.0
18/10:30pm 23.3 25.6 19.5 79 2.5 SE 6 9 3 5 1014.0 1011.9 18.0
18/10:00pm 23.5 25.2 19.4 78 2.6 SSE 9 11 5 6 1013.7 1011.6 18.0
18/09:30pm 23.6 24.6 19.5 78 2.7 S 13 17 7 9 1013.7 1011.6 18.0
18/09:00pm 23.8 25.1 19.3 76 2.9 SSE 11 17 6 9 1013.4 1011.3 18.0
18/08:30pm 24.0 24.9 19.3 75 3.0 S 13 17 7 9 1013.6 1011.5 18.0
18/08:00pm 24.1 24.9 19.0 73 3.3 SE 13 19 7 10 1013.2 1011.1 18.0
18/07:30pm 24.2 24.0 18.6 71 3.6 SE 17 20 9 11 1012.5 1010.4 18.0
18/07:00pm 24.5 23.7 18.0 67 4.1 SE 19 24 10 13 1012.3 1010.2 18.0
18/06:30pm 24.7 23.8 18.2 67 4.1 SE 20 26 11 14 1012.0 1009.9 18.0
18/06:00pm 24.9 24.0 18.3 66 4.2 SSE 20 26 11 14 1011.5 1009.5 18.0
18/05:30pm 25.3 24.5 18.5 66 4.4 SSE 20 28 11 15 1011.4 1009.4 18.0
18/05:00pm 25.4 23.2 18.6 66 4.4 SSE 28 39 15 21 1011.4 1009.4 18.0
18/04:30pm 26.1 24.1 19.2 65 4.5 S 28 35 15 19 1011.6 1009.6 18.0
18/04:00pm 24.8 22.1 19.2 71 3.6 S 32 43 17 23 1011.8 1009.8 18.0
18/03:30pm 24.1 21.5 19.6 76 2.9 S 32 39 17 21 1013.2 1011.1 18.0
18/03:00pm 23.7 19.9 19.0 75 3.0 SSW 37 50 20 27 1013.2 1011.1 18.0
18/02:30pm 24.0 19.4 18.9 73 3.3 SSW 41 57 22 31 1013.4 1011.3 18.0
18/02:27pm 24.1 20.0 18.3 70 3.7 SSW 37 56 20 30 1013.4 1011.3 18.0
18/02:00pm 23.9 20.8 18.3 71 3.6 S 32 44 17 24 1013.1 1011.0 18.0
18/01:30pm 22.7 21.5 18.3 76 2.8 SSW 22 28 12 15 1014.1 1012.0 17.8
18/01:00pm 22.6 21.8 19.2 81 2.2 SSW 22 28 12 15 1014.3 1012.2 16.8
18/12:44pm 22.4 21.0 18.8 80 2.3 SSW 24 32 13 17 1014.4 1012.3 16.2
18/12:30pm 22.2 21.2 18.8 81 2.2 WSW 22 37 12 20 1015.0 1013.0 15.8
18/12:03pm 23.4 20.3 17.4 69 3.8 NW 30 44 16 24 1014.5 1012.5 5.0
18/12:00pm 24.8 22.1 18.5 68 4.0 NW 30 44 16 24 1014.7 1012.7 2.2
18/11:52am 25.4 24.1 19.1 68 4.1 NNW 24 35 13 19 1014.3 1012.2 1.6
18/11:30am 27.3 23.6 16.9 53 6.6 SW 32 39 17 21 1012.3 1010.2 1.6
18/11:19am 27.9 24.1 18.0 55 6.4 SW 35 46 19 25 1011.5 1009.5 1.6
18/11:07am 28.5 25.0 17.4 51 7.1 SW 32 43 17 23 1011.5 1009.5 1.6
18/11:00am 29.6 25.7 16.4 45 8.3 SW 32 43 17 23 1011.2 1009.2 0.4
18/10:56am 33.7 29.6 13.7 30 12.3 SW 28 43 15 23 1010.9 1008.8 0.0
18/10:30am 34.0 32.7 15.9 33 11.5 SSW 17 22 9 12 1010.7 1008.6 0.0
18/10:00am 33.3 31.9 16.6 36 10.7 SSW 19 26 10 14 1010.8 1008.7 0.0
18/09:30am 32.5 31.2 17.2 40 9.8 SSW 20 30 11 16 1010.7 1008.6 0.0
18/09:00am 32.5 30.7 17.9 41 9.5 S 24 32 13 17 1010.4 1008.3 0.0
18/08:30am 33.0 33.8 19.8 45 8.8 WNW 15 22 8 12 1010.0 1007.9 0.0
18/08:00am 30.8 32.3 19.8 52 7.3 NNE 11 17 6 9 1009.6 1007.5 0.0
18/07:30am 30.2 30.1 19.6 53 7.0 NNE 19 24 10 13 1009.1 1007.0 0.0
18/07:00am 29.7 29.5 19.7 55 6.6 NNE 20 28 11 15 1008.8 1006.7 0.0
18/06:30am 29.8 30.6 19.8 55 6.6 NNE 15 19 8 10 1008.3 1006.2 0.0
18/06:00am 29.9 30.4 19.3 53 7.0 NNE 15 19 8 10 1007.9 1005.9 0.0
18/05:30am 30.3 31.2 19.3 51 7.2 N 13 19 7 10 1007.5 1005.4 0.0
18/05:00am 30.1 29.7 18.8 50 7.4 NNE 19 24 10 13 1006.9 1004.8 0.0
18/04:30am 29.9 29.0 18.3 49 7.5 NNE 20 28 11 15 1006.7 1004.6 0.0
18/04:00am 30.2 28.6 18.3 49 7.7 NNE 24 32 13 17 1006.8 1004.7 0.0
18/03:30am 30.7 29.0 18.1 47 8.2 NNE 24 30 13 16 1006.6 1004.5 0.0
18/03:00am 31.4 29.4 17.3 43 9.1 NNE 24 30 13 16 1006.6 1004.5 0.0
18/02:30am 32.3 30.8 15.3 35 10.6 NNE 17 22 9 12 1006.7 1004.6 0.0
18/02:00am 32.5 32.3 14.6 34 11.1 NNW 9 11 5 6 1006.8 1004.7 0.0
18/01:30am 32.7 31.6 14.3 32 11.4 NNE 13 17 7 9 1007.0 1004.9 0.0
18/01:00am 32.8 31.0 14.4 33 11.4 NE 17 22 9 12 1006.8 1004.7 0.0
18/12:30am 32.5 30.2 14.1 32 11.3 ENE 19 24 10 13 1006.9 1004.8 0.0
18/12:00am 32.6 30.7 14.2 32 11.4 ENE 17 24 9 13 1007.2 1005.1 0.0
 
Date/Time
EST
Temp
°C
App
Temp
°C
Dew
Point
Rel
Hum
%
Delta-T
°C
Wind Press
QNH
hPa
Press
MSL
hPa
Rain
since 9 am
mm
Dir
 
Spd
km/h
Gust
km/h
Spd
kts
Gust
kts
17/11:30pm 33.6 31.3 14.6 31 11.8 NNE 20 28 11 15 1007.4 1005.3 0.0
17/11:00pm 33.7 33.7 14.2 30 12.1 NW 7 9 4 5 1007.1 1005.0 0.0
17/10:30pm 33.4 31.8 14.9 32 11.6 WNW 17 22 9 12 1007.6 1005.5 0.0
17/10:00pm 33.2 30.6 14.8 33 11.5 WNW 22 30 12 16 1007.5 1005.4 0.0
17/09:30pm 33.9 31.3 13.9 30 12.3 W 20 24 11 13 1007.0 1004.9 0.0
17/09:00pm 34.0 30.5 13.5 29 12.6 W 24 33 13 18 1006.9 1004.8 0.0
17/08:30pm 34.5 30.0 13.9 29 12.7 WSW 30 39 16 21 1006.7 1004.6 0.0
17/08:00pm 34.9 30.0 13.7 28 13.1 WSW 32 44 17 24 1006.2 1004.1 0.0
17/07:30pm 35.3 31.3 14.0 28 13.2 WSW 28 37 15 20 1005.8 1003.7 0.0
17/07:00pm 38.7 35.4 11.7 20 16.5 NW 20 26 11 14 1004.5 1002.4 0.0
17/06:30pm 38.8 34.6 12.5 21 16.2 NW 26 33 14 18 1004.3 1002.1 0.0
17/06:00pm 39.4 35.6 12.3 20 16.7 NW 24 28 13 15 1003.6 1001.5 0.0
17/05:30pm 40.2 36.3 12.1 19 17.3 NW 24 33 13 18 1003.2 1001.1 0.0
17/05:01pm 40.3 36.9 13.8 21 16.7 N 24 35 13 19 1003.2 1001.1 0.0
17/05:00pm 40.1 36.7 13.6 21 16.7 N 24 35 13 19 1003.1 1001.0 0.0
17/04:51pm 40.3 37.2 14.5 22 16.4 N 24 35 13 19 1003.3 1001.2 0.0
17/04:30pm 38.6 34.7 14.4 24 15.3 NNE 28 37 15 20 1003.6 1001.5 0.0
17/04:00pm 38.9 33.5 14.0 23 15.7 N 35 54 19 29 1004.3 1002.1 0.0
17/03:43pm 39.7 33.5 12.5 20 16.8 NNW 37 50 20 27 1004.5 1002.4 0.0
17/03:30pm 41.1 34.6 12.9 19 17.6 NW 39 50 21 27 1004.4 1002.3 0.0
17/03:00pm 41.4 37.7 11.4 17 18.4 NW 22 35 12 19 1004.4 1002.3 0.0
17/02:49pm 40.8 37.5 10.9 17 18.1 WSW 19 39 10 21 1004.5 1002.4 0.0
17/02:30pm 41.3 38.8 12.2 18 18.0 WSW 17 26 9 14 1004.9 1002.8 0.0
17/02:00pm 40.9 37.4 11.0 17 18.2 W 20 35 11 19 1005.4 1003.3 0.0
17/01:30pm 41.2 37.2 13.0 19 17.6 WSW 26 39 14 21 1005.7 1003.6 0.0
17/01:00pm 41.2 36.2 12.1 18 18.0 NW 30 44 16 24 1006.0 1003.9 0.0
17/12:30pm 40.8 37.3 13.4 20 17.2 WNW 24 37 13 20 1006.6 1004.5 0.0
17/12:00pm 40.0 34.8 12.8 20 16.9 WNW 32 43 17 23 1006.7 1004.6 0.0

Other Formats:

Comma delimited format used in spreadsheet applications
http://www.bom.gov.au/fwo/IDQ60801/IDQ60801.94338.axf

JavaScript Object Notation format (JSON) in row-major order
http://www.bom.gov.au/fwo/IDQ60801/IDQ60801.94338.json